Aeroporto :
LOGIN :

Iscrizione | Disclaimer

   EN    FR    IT 

 










Sommario :    VFR   VFR Marginale   IFR   IFR Intensivo   IFR Molto Intensivo
Visibilità : 
Base nubi : 
>= 8 km
>= 3000ft
5 / 8 km
1000 / 3000 ft
1500m / 5 km
500 / 1000 ft
800 / 1500m
200 / 500 ft
< 800m
< 200 ft
Simboli :   Temporali  Nebbia  Neve Forte  Precipitazioni Forti  Vento > 20 kt
SIGMETs :   Varie  Temporali  Ghiacco  Turbolenza  Onda orograficha  Ceneri Vulcaniche







- Altitudine del aeroporto : 659 ft
- Codice IATA : LGG


EBLG - Liège

ULTIMO METAR :
  • 260550Z 32004KT 280V360 2200 BR NSC 19/17 Q1024 NOSIG

METARs OBSOLETI :
  • 260520Z 32005KT 280V050 2200 BR NSC 18/17 Q1024
  • 260450Z 33005KT 2200 BR NSC 19/17 Q1024
  • 260420Z 32004KT 2300 BR NSC 19/18 Q1023
  • 260350Z 31003KT 2500 BR NSC 19/18 Q1023
  • 260320Z 30002KT 3300 BR NSC 20/19 Q1023

TAF TAF EBLG
Valido dal 26 a 06 ore il 27 a 12 ore UTC


260500Z 2606/2712 33007KT CAVOK
BECMG 2618/2620 03010KT
Nessun NOTAM noto per questo aeroporto.



MetMap, La meteo Aeronautica in un colpo d'occhio ! - Copyright ORBIFLY Dicembre 2007 - Disclaimer

ORBIFLY MET'MAP TEAM :

Programmazione e sviluppo : Alexandra Zaïnal
Concezione e sviluppo : Baudouin d'Aumeries
Co-Programmazione e sviluppo : Marc-Olivier Méhu
Supporto tecnico e logistico : Manuel Goepfert
Aiuto per la traduzione : Arnaldo La Scala

Contatto : metmap@orbifly.com




FONTI E CREDITI :

   NOAA